Terminal Aerodrome Forecast
Issued by NWS Pittsburgh, PA

Current Version | Previous Version | Text Only | Print | Product List | Glossary Off
Versions: 1 2 3 4 5 6 7 8 9 10 11 12 13 14 15 16 17 18 19 20 21 22 23 24 25 26 27 28 29 30 31 32

120
FTUS41 KPBZ 200522
TAFPIT
TAF
KPIT 200522Z 2006/2112 23008KT P6SM VCSH BKN030
     FM200900 26007KT P6SM BKN015
      TEMPO 2010/2012 BKN008
     FM201800 31008KT P6SM BKN045
     FM210000 34005KT P6SM BKN060
     FM210800 VRB03KT 5SM BR BKN090=

USA.gov is the U.S. government's official web portal to all federal, state and local government web resources and services.